createdAt,value
2017-05-06T00:01:18.380Z,10.70
2017-05-06T00:03:48.355Z,10.70
2017-05-06T00:06:18.506Z,10.70
2017-05-06T00:08:49.212Z,10.70
2017-05-06T00:11:19.460Z,10.70
2017-05-06T00:13:50.176Z,10.60
2017-05-06T00:16:20.365Z,10.70
2017-05-06T00:18:50.340Z,10.60
2017-05-06T00:21:20.548Z,10.60
2017-05-06T00:23:51.275Z,10.50
2017-05-06T00:26:22.220Z,10.50
2017-05-06T00:28:53.051Z,10.50
2017-05-06T00:31:23.996Z,10.50
2017-05-06T00:33:54.698Z,10.50
2017-05-06T00:36:24.859Z,10.50
2017-05-06T00:38:54.828Z,10.40
2017-05-06T00:41:24.818Z,10.40
2017-05-06T00:43:55.003Z,10.30
2017-05-06T00:46:25.212Z,10.20
2017-05-06T00:48:55.937Z,10.20
2017-05-06T00:51:26.916Z,10.20
2017-05-06T00:53:56.887Z,10.30
2017-05-06T00:56:28.664Z,10.30
2017-05-06T00:58:59.396Z,10.30
2017-05-06T01:01:30.352Z,10.20
2017-05-06T01:04:00.328Z,10.20
2017-05-06T01:06:31.277Z,10.30
2017-05-06T01:09:01.990Z,10.20
2017-05-06T01:11:32.956Z,10.20
2017-05-06T01:14:02.968Z,10.20
2017-05-06T01:16:34.018Z,10.20
2017-05-06T01:19:04.748Z,10.10
2017-05-06T01:21:34.870Z,10.10
2017-05-06T01:24:05.533Z,10.10
2017-05-06T01:26:35.716Z,10.10
2017-05-06T01:29:06.448Z,10.00
2017-05-06T01:31:36.357Z,10.00
2017-05-06T01:34:07.445Z,9.90
2017-05-06T01:36:37.620Z,9.90
2017-05-06T01:39:09.600Z,9.90
2017-05-06T01:41:40.523Z,9.90
2017-05-06T01:44:11.285Z,9.80
2017-05-06T01:46:41.476Z,9.80
2017-05-06T01:49:12.197Z,9.70
2017-05-06T01:51:43.037Z,9.70
2017-05-06T01:54:13.682Z,9.70
2017-05-06T01:56:44.319Z,9.60
2017-05-06T01:59:14.286Z,9.60
2017-05-06T02:01:44.433Z,9.60
2017-05-06T02:04:15.263Z,9.60
2017-05-06T02:06:46.209Z,9.50
2017-05-06T02:09:16.930Z,9.50
2017-05-06T02:11:47.007Z,9.50
2017-05-06T02:14:16.995Z,9.50
2017-05-06T02:16:46.681Z,9.50
2017-05-06T02:19:17.231Z,9.40
2017-05-06T02:21:48.045Z,9.40
2017-05-06T02:24:18.021Z,9.40
2017-05-06T02:26:48.181Z,9.40
2017-05-06T02:29:18.885Z,9.30
2017-05-06T02:31:50.049Z,9.30
2017-05-06T02:34:20.773Z,9.30
2017-05-06T02:36:51.665Z,9.20
2017-05-06T02:39:21.624Z,9.30
2017-05-06T02:41:52.573Z,9.20
2017-05-06T02:44:23.277Z,9.20
2017-05-06T02:46:53.521Z,9.20
2017-05-06T02:49:24.240Z,9.20
2017-05-06T02:51:55.053Z,9.30
2017-05-06T02:54:25.023Z,9.30
2017-05-06T02:56:55.232Z,9.20
2017-05-06T02:59:25.938Z,9.20
2017-05-06T03:01:56.192Z,9.20
2017-05-06T03:04:26.909Z,9.10
2017-05-06T03:06:57.467Z,9.10
2017-05-06T03:09:27.597Z,9.10
2017-05-06T03:11:57.785Z,9.10
2017-05-06T03:14:28.484Z,9.00
2017-05-06T03:16:58.628Z,9.10
2017-05-06T03:19:29.347Z,9.00
2017-05-06T03:21:59.589Z,9.00
2017-05-06T03:24:30.285Z,9.00
2017-05-06T03:27:00.433Z,9.00
2017-05-06T03:29:31.137Z,8.90
2017-05-06T03:32:01.329Z,8.90
2017-05-06T03:34:31.308Z,8.90
2017-05-06T03:37:02.189Z,8.90
2017-05-06T03:39:32.280Z,9.00
2017-05-06T03:42:02.688Z,8.90
2017-05-06T03:44:33.400Z,8.90
2017-05-06T03:47:03.573Z,8.90
2017-05-06T03:49:33.561Z,8.90
2017-05-06T03:52:04.493Z,8.90
2017-05-06T03:54:35.213Z,9.00
2017-05-06T03:57:06.593Z,9.00
2017-05-06T03:59:36.525Z,9.00
2017-05-06T04:02:06.733Z,9.00
2017-05-06T04:04:36.713Z,9.00
2017-05-06T04:07:07.669Z,9.00
2017-05-06T04:09:37.656Z,9.10
2017-05-06T04:12:07.805Z,9.00
2017-05-06T04:14:37.780Z,9.00
2017-05-06T04:17:07.934Z,9.00
2017-05-06T04:19:38.637Z,9.10
2017-05-06T04:22:08.892Z,9.10
2017-05-06T04:24:38.866Z,9.10
2017-05-06T04:27:09.013Z,9.10
2017-05-06T04:29:39.668Z,9.20
2017-05-06T04:32:09.869Z,9.20
2017-05-06T04:34:41.539Z,9.20
2017-05-06T04:37:11.749Z,9.30
2017-05-06T04:39:41.737Z,9.30
2017-05-06T04:42:11.876Z,9.30
2017-05-06T04:44:42.589Z,9.30
2017-05-06T04:47:13.040Z,9.40
2017-05-06T04:49:43.764Z,9.40
2017-05-06T04:52:14.687Z,9.50
2017-05-06T04:54:44.751Z,9.60
2017-05-06T04:57:15.773Z,9.60
2017-05-06T04:59:45.745Z,9.60
2017-05-06T05:02:15.908Z,9.60
2017-05-06T05:04:45.892Z,9.60
2017-05-06T05:07:16.137Z,9.70
2017-05-06T05:09:46.118Z,9.70
2017-05-06T05:12:16.365Z,9.80
2017-05-06T05:14:46.412Z,9.80
2017-05-06T05:17:17.540Z,9.80
2017-05-06T05:19:47.516Z,9.90
2017-05-06T05:22:17.673Z,9.80
2017-05-06T05:24:47.648Z,9.90
2017-05-06T05:27:17.852Z,9.90
2017-05-06T05:29:47.835Z,9.90
2017-05-06T05:32:18.059Z,10.00
2017-05-06T05:34:48.745Z,10.00
2017-05-06T05:37:19.004Z,10.00
2017-05-06T05:39:48.971Z,10.20
2017-05-06T05:42:19.124Z,10.20
2017-05-06T05:44:50.664Z,10.20
2017-05-06T05:47:20.857Z,10.30
2017-05-06T05:49:51.612Z,10.30
2017-05-06T05:52:22.967Z,10.30
2017-05-06T05:54:53.020Z,10.40
2017-05-06T05:57:23.520Z,10.50
2017-05-06T05:59:53.880Z,10.50
2017-05-06T06:02:24.364Z,10.60
2017-05-06T06:04:54.457Z,10.60
2017-05-06T06:07:24.712Z,10.70
2017-05-06T06:09:54.705Z,10.80
2017-05-06T06:12:25.136Z,10.90
2017-05-06T06:14:55.943Z,11.00
2017-05-06T06:17:26.408Z,11.00
2017-05-06T06:19:57.130Z,11.10
2017-05-06T06:22:28.794Z,11.20
2017-05-06T06:24:58.941Z,11.20
2017-05-06T06:27:29.355Z,11.20
2017-05-06T06:30:00.128Z,11.20
2017-05-06T06:32:31.353Z,11.30
2017-05-06T06:35:02.308Z,11.40
2017-05-06T06:37:32.570Z,11.50
2017-05-06T06:40:04.395Z,11.60
2017-05-06T06:42:34.645Z,11.70
2017-05-06T06:45:04.539Z,11.70
2017-05-06T06:47:34.688Z,11.70
2017-05-06T06:50:04.676Z,11.80
2017-05-06T06:52:34.837Z,11.90
2017-05-06T06:55:04.841Z,12.00
2017-05-06T06:57:35.693Z,11.90
2017-05-06T07:00:05.687Z,12.00
2017-05-06T07:02:36.953Z,12.00
2017-05-06T07:05:06.974Z,12.10
2017-05-06T07:07:36.981Z,12.10
2017-05-06T07:10:07.201Z,12.10
2017-05-06T07:12:37.380Z,12.20
2017-05-06T07:15:07.541Z,12.30
2017-05-06T07:17:37.526Z,12.40
2017-05-06T07:20:08.544Z,12.40
2017-05-06T07:22:38.492Z,12.40
2017-05-06T07:25:09.445Z,12.50
2017-05-06T07:27:39.424Z,12.70
2017-05-06T07:30:09.233Z,12.90
2017-05-06T07:32:40.854Z,13.00
2017-05-06T07:35:10.944Z,13.10
2017-05-06T07:37:41.473Z,13.20
2017-05-06T07:40:11.457Z,13.30
2017-05-06T07:42:41.713Z,13.50
2017-05-06T07:45:11.693Z,13.60
2017-05-06T07:47:41.945Z,13.70
2017-05-06T07:50:11.264Z,13.70
2017-05-06T07:52:43.505Z,13.90
2017-05-06T07:55:14.231Z,13.90
2017-05-06T07:57:44.236Z,14.00
2017-05-06T08:00:15.011Z,14.20
2017-05-06T08:02:45.215Z,14.50
2017-05-06T08:05:15.197Z,14.80
2017-05-06T08:07:45.353Z,14.90
2017-05-06T08:10:15.333Z,15.10
2017-05-06T08:12:45.587Z,15.10
2017-05-06T08:15:15.747Z,15.30
2017-05-06T08:17:45.945Z,15.50
2017-05-06T08:20:15.914Z,15.60
2017-05-06T08:22:46.121Z,15.80
2017-05-06T08:25:16.104Z,16.00
2017-05-06T08:27:46.308Z,16.00
2017-05-06T08:30:16.297Z,16.20
2017-05-06T08:32:47.242Z,16.50
2017-05-06T08:35:17.973Z,16.80
2017-05-06T08:37:48.926Z,17.10
2017-05-06T08:40:18.171Z,17.00
2017-05-06T08:42:48.205Z,17.40
2017-05-06T08:45:18.962Z,17.80
2017-05-06T08:47:50.110Z,18.00
2017-05-06T08:50:20.830Z,18.60
2017-05-06T08:52:51.799Z,19.20
2017-05-06T08:55:22.647Z,19.80
2017-05-06T08:57:53.561Z,20.40
2017-05-06T09:00:24.073Z,20.80
2017-05-06T09:02:54.313Z,20.80
2017-05-06T09:05:24.322Z,20.90
2017-05-06T09:07:55.161Z,21.50
2017-05-06T09:10:26.357Z,22.00
2017-05-06T09:12:56.711Z,22.20
2017-05-06T09:15:27.453Z,22.10
2017-05-06T09:17:57.581Z,21.90
2017-05-06T09:20:27.571Z,22.40
2017-05-06T09:22:57.873Z,22.90
2017-05-06T09:25:27.857Z,22.90
2017-05-06T09:27:58.048Z,22.60
2017-05-06T09:30:28.738Z,22.90
2017-05-06T09:32:59.000Z,22.90
2017-05-06T09:35:29.004Z,22.90
2017-05-06T09:37:59.872Z,23.20
2017-05-06T09:40:29.862Z,23.40
2017-05-06T09:43:01.726Z,23.30
2017-05-06T09:45:32.452Z,23.10
2017-05-06T09:48:02.681Z,23.00
2017-05-06T09:50:34.305Z,23.20
2017-05-06T09:53:05.097Z,23.00
2017-05-06T09:55:35.589Z,23.40
2017-05-06T09:58:11.512Z,23.80
2017-05-06T10:00:43.157Z,24.00
2017-05-06T10:03:17.117Z,24.20
2017-05-06T10:05:47.102Z,24.20
2017-05-06T10:08:17.660Z,23.40
2017-05-06T10:10:47.647Z,23.00
2017-05-06T10:13:17.905Z,23.20
2017-05-06T10:15:47.926Z,23.20
2017-05-06T10:18:18.862Z,23.10
2017-05-06T10:20:49.650Z,23.00
2017-05-06T10:23:20.828Z,23.00
2017-05-06T10:25:50.929Z,23.40
2017-05-06T10:28:21.910Z,23.30
2017-05-06T10:30:52.057Z,23.10
2017-05-06T10:33:22.428Z,23.00
2017-05-06T10:35:53.140Z,22.70
2017-05-06T10:38:23.514Z,22.70
2017-05-06T10:40:54.478Z,23.30
2017-05-06T10:43:24.922Z,23.40
2017-05-06T10:45:55.031Z,23.00
2017-05-06T10:48:25.363Z,23.00
2017-05-06T10:50:56.488Z,23.00
2017-05-06T10:53:26.689Z,23.20
2017-05-06T10:55:58.284Z,23.30
2017-05-06T10:58:29.132Z,23.10
2017-05-06T11:00:59.281Z,23.00
2017-05-06T11:03:29.494Z,23.10
2017-05-06T11:05:59.475Z,23.30
2017-05-06T11:08:29.621Z,23.30
2017-05-06T11:10:59.613Z,23.30
2017-05-06T11:13:29.440Z,23.00
2017-05-06T11:16:00.159Z,22.70
2017-05-06T11:18:30.285Z,22.60
2017-05-06T11:21:01.899Z,22.70
2017-05-06T11:23:32.264Z,22.80
2017-05-06T11:26:02.239Z,23.10
2017-05-06T11:28:32.096Z,22.90
2017-05-06T11:31:03.161Z,22.80
2017-05-06T11:33:33.349Z,22.90
2017-05-06T11:36:04.117Z,22.70
2017-05-06T11:38:35.533Z,22.80
2017-05-06T11:41:06.241Z,22.80
2017-05-06T11:43:37.219Z,23.00
2017-05-06T11:46:07.901Z,22.90
2017-05-06T11:48:38.057Z,22.90
2017-05-06T11:51:09.116Z,22.80
2017-05-06T11:53:39.213Z,22.70
2017-05-06T11:56:09.944Z,22.70
2017-05-06T11:58:41.395Z,22.50
2017-05-06T12:01:12.111Z,22.40
2017-05-06T12:03:42.297Z,22.30
2017-05-06T12:06:12.261Z,22.00
2017-05-06T12:08:43.305Z,21.80
2017-05-06T12:11:13.312Z,22.00
2017-05-06T12:13:43.498Z,22.00
2017-05-06T12:16:14.430Z,21.90
2017-05-06T12:18:44.814Z,22.00
2017-05-06T12:21:15.509Z,22.20
2017-05-06T12:23:46.581Z,22.00
2017-05-06T12:26:17.305Z,22.10
2017-05-06T12:28:48.314Z,22.00
2017-05-06T12:31:18.281Z,22.10
2017-05-06T12:33:48.488Z,22.00
2017-05-06T12:36:18.483Z,22.20
2017-05-06T12:38:48.629Z,22.10
2017-05-06T12:41:19.682Z,22.00
2017-05-06T12:43:50.701Z,22.00
2017-05-06T12:46:21.438Z,22.10
2017-05-06T12:48:51.632Z,22.20
2017-05-06T12:51:23.573Z,22.20
2017-05-06T12:53:53.741Z,22.10
2017-05-06T12:56:24.283Z,22.10
2017-05-06T12:58:54.578Z,22.00
2017-05-06T13:01:24.690Z,21.90
2017-05-06T13:03:54.880Z,21.80
2017-05-06T13:06:24.839Z,21.80
2017-05-06T13:08:55.785Z,21.70
2017-05-06T13:11:25.890Z,21.80
2017-05-06T13:13:56.146Z,21.80
2017-05-06T13:16:26.151Z,22.00
2017-05-06T13:18:56.363Z,22.00
2017-05-06T13:21:26.357Z,22.10
2017-05-06T13:23:57.306Z,22.10
2017-05-06T13:26:28.027Z,22.10
2017-05-06T13:28:58.977Z,22.20
2017-05-06T13:31:29.717Z,22.50
2017-05-06T13:34:00.882Z,22.60
2017-05-06T13:36:31.790Z,22.70
2017-05-06T13:39:02.937Z,22.70
2017-05-06T13:41:32.916Z,22.70
2017-05-06T13:44:03.449Z,22.60
2017-05-06T13:46:33.397Z,22.50
2017-05-06T13:49:03.552Z,22.50
2017-05-06T13:51:34.267Z,22.60
2017-05-06T13:54:04.579Z,22.70
2017-05-06T13:56:34.664Z,22.70
2017-05-06T13:59:04.917Z,22.60
2017-05-06T14:01:34.946Z,22.50
2017-05-06T14:04:05.173Z,22.60
2017-05-06T14:06:35.171Z,22.90
2017-05-06T14:09:08.660Z,23.00
2017-05-06T14:11:38.648Z,23.00
2017-05-06T14:14:08.928Z,22.80
2017-05-06T14:16:38.901Z,22.80
2017-05-06T14:19:10.070Z,22.90
2017-05-06T14:21:40.099Z,23.00
2017-05-06T14:24:10.560Z,23.00
2017-05-06T14:26:40.556Z,22.90
2017-05-06T14:29:10.951Z,22.90
2017-05-06T14:31:40.565Z,23.00
2017-05-06T14:34:10.673Z,22.90
2017-05-06T14:36:42.588Z,22.80
2017-05-06T14:39:12.730Z,22.80
2017-05-06T14:41:43.936Z,22.80
2017-05-06T14:44:14.091Z,22.70
2017-05-06T14:46:44.822Z,22.70
2017-05-06T14:49:15.999Z,22.60
2017-05-06T14:51:45.963Z,22.60
2017-05-06T14:54:16.211Z,22.60
2017-05-06T14:56:46.455Z,22.50
2017-05-06T14:59:16.670Z,22.50
2017-05-06T15:01:47.647Z,22.70
2017-05-06T15:04:18.864Z,22.70
2017-05-06T15:06:48.864Z,22.70
2017-05-06T15:09:19.180Z,22.60
2017-05-06T15:11:49.160Z,22.60
2017-05-06T15:14:19.128Z,22.70
2017-05-06T15:16:50.031Z,22.70
2017-05-06T15:19:21.000Z,22.50
2017-05-06T15:21:52.728Z,22.60
2017-05-06T15:24:32.731Z,22.60
2017-05-06T15:27:03.708Z,22.60
2017-05-06T15:29:33.857Z,22.60
2017-05-06T15:32:03.854Z,22.60
2017-05-06T15:34:34.705Z,22.70
2017-05-06T15:37:05.040Z,22.80
2017-05-06T15:39:35.122Z,22.90
2017-05-06T15:42:05.905Z,22.80
2017-05-06T15:44:36.117Z,22.70
2017-05-06T15:47:06.089Z,22.70
2017-05-06T15:49:36.337Z,22.70
2017-05-06T15:52:06.376Z,22.70
2017-05-06T15:54:36.647Z,22.60
2017-05-06T15:57:07.325Z,22.40
2017-05-06T15:59:38.503Z,22.30
2017-05-06T16:02:09.977Z,22.30
2017-05-06T16:04:41.010Z,22.30
2017-05-06T16:07:11.227Z,22.40
2017-05-06T16:09:43.596Z,22.40
2017-05-06T16:12:13.564Z,22.40
2017-05-06T16:14:43.748Z,22.40
2017-05-06T16:17:15.313Z,22.20
2017-05-06T16:19:46.351Z,22.20
2017-05-06T16:22:17.078Z,22.20
2017-05-06T16:24:47.982Z,22.20
2017-05-06T16:27:17.956Z,22.20
2017-05-06T16:29:48.178Z,22.10
2017-05-06T16:32:18.207Z,22.10
2017-05-06T16:34:48.372Z,22.00
2017-05-06T16:37:18.364Z,22.00
2017-05-06T16:39:49.279Z,22.00
2017-05-06T16:42:19.246Z,22.00
2017-05-06T16:44:50.224Z,22.00
2017-05-06T16:47:21.716Z,22.00
2017-05-06T16:49:52.278Z,22.00
2017-05-06T16:52:22.996Z,21.90
2017-05-06T16:54:53.950Z,21.90
2017-05-06T16:57:24.680Z,21.90
2017-05-06T16:59:55.616Z,21.90
2017-05-06T17:02:26.385Z,21.90
2017-05-06T17:04:56.573Z,21.90
2017-05-06T17:07:27.327Z,21.80
2017-05-06T17:09:58.366Z,21.80
2017-05-06T17:12:29.117Z,21.70
2017-05-06T17:14:59.297Z,21.70
2017-05-06T17:17:30.009Z,21.60
2017-05-06T17:20:00.148Z,21.50
2017-05-06T17:22:31.780Z,21.40
2017-05-06T17:25:01.900Z,21.30
2017-05-06T17:27:32.193Z,21.20
2017-05-06T17:30:02.433Z,21.10
2017-05-06T17:32:32.426Z,21.00
2017-05-06T17:35:03.521Z,21.00
2017-05-06T17:37:34.503Z,21.00
2017-05-06T17:40:07.032Z,21.00
2017-05-06T17:42:39.899Z,21.00
2017-05-06T17:45:10.319Z,20.90
2017-05-06T17:47:43.785Z,20.80
2017-05-06T17:50:19.017Z,20.80
2017-05-06T17:52:50.927Z,20.70
2017-05-06T17:55:21.513Z,20.80
2017-05-06T17:57:51.819Z,20.80
2017-05-06T18:00:22.215Z,20.70
2017-05-06T18:02:52.266Z,20.70
2017-05-06T18:05:23.195Z,20.70
2017-05-06T18:07:53.880Z,20.70
2017-05-06T18:10:24.031Z,20.70
2017-05-06T18:12:54.741Z,20.70
2017-05-06T18:15:24.984Z,20.70
2017-05-06T18:17:54.972Z,20.60
2017-05-06T18:20:25.938Z,20.60
2017-05-06T18:22:56.245Z,20.60
2017-05-06T18:25:27.321Z,20.60
2017-05-06T18:27:57.299Z,20.60
2017-05-06T18:30:28.255Z,20.60
2017-05-06T18:32:58.256Z,20.50
2017-05-06T18:35:29.157Z,20.50
2017-05-06T18:37:59.561Z,20.50
2017-05-06T18:40:29.855Z,20.50
2017-05-06T18:43:00.567Z,20.40
2017-05-06T18:45:30.797Z,20.50
2017-05-06T18:48:02.285Z,20.50
2017-05-06T18:50:33.871Z,20.40
2017-05-06T18:53:05.615Z,20.30
2017-05-06T18:55:35.882Z,20.30
2017-05-06T18:58:05.879Z,20.10
2017-05-06T19:00:36.929Z,20.10
2017-05-06T19:03:07.652Z,20.00
2017-05-06T19:05:38.761Z,20.00
2017-05-06T19:08:09.441Z,19.90
2017-05-06T19:10:39.868Z,19.80
2017-05-06T19:13:10.612Z,19.80
2017-05-06T19:15:40.838Z,19.70
2017-05-06T19:18:10.830Z,19.60
2017-05-06T19:20:41.073Z,19.60
2017-05-06T19:23:11.888Z,19.50
2017-05-06T19:25:42.852Z,19.50
2017-05-06T19:28:12.857Z,19.50
2017-05-06T19:30:43.786Z,19.50
2017-05-06T19:33:14.542Z,19.50
2017-05-06T19:35:44.692Z,19.40
2017-05-06T19:38:14.780Z,19.40
2017-05-06T19:40:45.514Z,19.30
2017-05-06T19:43:16.656Z,19.20
2017-05-06T19:45:47.576Z,19.10
2017-05-06T19:48:17.744Z,19.10
2017-05-06T19:50:48.115Z,19.00
2017-05-06T19:53:18.090Z,19.00
2017-05-06T19:55:49.106Z,18.90
2017-05-06T19:58:19.938Z,18.80
2017-05-06T20:00:50.125Z,18.80
2017-05-06T20:03:20.856Z,18.70
2017-05-06T20:05:51.076Z,18.70
2017-05-06T20:08:21.818Z,18.70
2017-05-06T20:10:52.017Z,18.70
2017-05-06T20:13:22.758Z,18.70
2017-05-06T20:15:53.725Z,18.70
2017-05-06T20:18:24.453Z,18.70
2017-05-06T20:20:55.377Z,18.80
2017-05-06T20:23:25.368Z,18.80
2017-05-06T20:25:55.616Z,18.80
2017-05-06T20:28:25.653Z,18.80
2017-05-06T20:30:55.850Z,18.80
2017-05-06T20:33:26.857Z,18.80
2017-05-06T20:35:57.130Z,18.70
2017-05-06T20:38:27.115Z,18.70
2017-05-06T20:40:58.064Z,18.60
2017-05-06T20:43:28.598Z,18.60
2017-05-06T20:45:58.746Z,18.60
2017-05-06T20:48:28.872Z,18.50
2017-05-06T20:50:59.151Z,18.50
2017-05-06T20:53:29.861Z,18.40
2017-05-06T20:56:00.821Z,18.40
2017-05-06T20:58:31.544Z,18.30
2017-05-06T21:01:02.505Z,18.30
2017-05-06T21:03:32.489Z,18.20
2017-05-06T21:06:02.757Z,18.30
2017-05-06T21:08:32.722Z,18.20
2017-05-06T21:11:02.972Z,18.20
2017-05-06T21:13:32.948Z,18.10
2017-05-06T21:16:03.121Z,18.10
2017-05-06T21:18:33.076Z,18.00
2017-05-06T21:21:03.187Z,18.00
2017-05-06T21:23:33.223Z,17.90
2017-05-06T21:26:04.228Z,17.80
2017-05-06T21:28:34.220Z,17.70
2017-05-06T21:31:05.144Z,17.60
2017-05-06T21:33:35.145Z,17.60
2017-05-06T21:36:05.281Z,17.60
2017-05-06T21:38:38.964Z,17.50
2017-05-06T21:41:10.536Z,17.50
2017-05-06T21:43:40.518Z,17.50
2017-05-06T21:46:10.352Z,17.40
2017-05-06T21:48:41.106Z,17.40
2017-05-06T21:51:11.928Z,17.40
2017-05-06T21:53:43.463Z,17.30
2017-05-06T21:56:14.611Z,17.40
2017-05-06T21:58:45.324Z,17.40
2017-05-06T22:01:15.572Z,17.30
2017-05-06T22:03:45.610Z,17.30
2017-05-06T22:06:16.724Z,17.20
2017-05-06T22:08:47.441Z,17.20
2017-05-06T22:11:17.784Z,17.20
2017-05-06T22:13:48.172Z,17.10
2017-05-06T22:16:18.436Z,17.10
2017-05-06T22:18:49.114Z,17.10
2017-05-06T22:21:19.604Z,17.10
2017-05-06T22:23:50.490Z,17.00
2017-05-06T22:26:20.635Z,17.00
2017-05-06T22:28:52.321Z,17.00
2017-05-06T22:31:23.258Z,17.00
2017-05-06T22:33:54.181Z,16.90
2017-05-06T22:36:25.149Z,16.90
2017-05-06T22:38:55.924Z,16.90
2017-05-06T22:41:26.905Z,16.80
2017-05-06T22:43:56.921Z,16.90
2017-05-06T22:46:27.127Z,16.80
2017-05-06T22:48:57.869Z,16.80
2017-05-06T22:51:28.210Z,16.80
2017-05-06T22:53:58.337Z,16.80
2017-05-06T22:56:28.547Z,16.70
2017-05-06T22:58:58.642Z,16.70
2017-05-06T23:01:28.863Z,16.80
2017-05-06T23:03:59.627Z,16.70
2017-05-06T23:06:29.821Z,16.70
2017-05-06T23:08:59.822Z,16.70
2017-05-06T23:11:30.783Z,16.70
2017-05-06T23:14:00.824Z,16.70
2017-05-06T23:16:31.546Z,16.70
2017-05-06T23:19:02.189Z,16.60
2017-05-06T23:21:32.469Z,16.50
2017-05-06T23:24:03.189Z,16.50
2017-05-06T23:26:34.167Z,16.60
2017-05-06T23:29:04.152Z,16.60
2017-05-06T23:31:34.481Z,16.60
2017-05-06T23:34:05.210Z,16.60
2017-05-06T23:36:35.763Z,16.60
2017-05-06T23:39:05.073Z,16.60
2017-05-06T23:41:35.488Z,16.50
2017-05-06T23:44:05.474Z,16.50
2017-05-06T23:46:35.838Z,16.50
2017-05-06T23:49:05.844Z,16.50
2017-05-06T23:51:36.152Z,16.50
2017-05-06T23:54:06.129Z,16.50
2017-05-06T23:56:36.813Z,16.50
2017-05-06T23:59:06.795Z,16.40
